Time;durP1;ratioP1;P1;durP2;ratioP2;P2;SDS_P1;SDS_P2;PMS_P1;PMS_P2;Temp;Humidity;BMP_temperature;BMP_pressure;BME280_temperature;BME280_humidity;BME280_pressure;Samples;Min_cycle;Max_cycle;Signal;HPM_P1;HPM_P2
2022/01/01 00:00:12;;;;;;;3.10;2.25;;;;;;;8.30;85.93;95820.97;1649421;87;21070;-61
2022/01/01 00:02:41;;;;;;;2.70;2.05;;;;;;;8.32;84.47;95813.50;1649226;87;21094;-62
2022/01/01 00:05:11;;;;;;;3.77;2.05;;;;;;;8.30;84.13;95813.08;1649493;87;21548;-62
2022/01/01 00:07:44;;;;;;;2.98;2.20;;;;;;;8.31;84.74;95815.68;1649422;87;21050;-62
2022/01/01 00:10:10;;;;;;;2.20;2.00;;;;;;;8.38;83.72;95812.58;1649467;87;21023;-62
2022/01/01 00:12:37;;;;;;;20.40;10.72;;;;;;;8.44;84.32;95809.52;1649081;87;21085;-62
2022/01/01 00:15:04;;;;;;;3.17;2.37;;;;;;;8.43;84.25;95805.57;1625383;87;21038;-62
2022/01/01 00:17:31;;;;;;;2.08;1.80;;;;;;;8.39;84.29;95805.11;1649426;87;21102;-61
2022/01/01 00:19:57;;;;;;;6.17;3.27;;;;;;;8.38;82.58;95787.16;1649542;87;21536;-62
2022/01/01 00:22:23;;;;;;;3.50;2.20;;;;;;;8.37;83.47;95785.87;1649368;87;21035;-62
2022/01/01 00:24:50;;;;;;;2.25;2.05;;;;;;;8.31;83.33;95781.50;1649537;87;21058;-62
2022/01/01 00:27:16;;;;;;;3.22;2.33;;;;;;;8.30;83.40;95782.84;1649540;87;21038;-62
2022/01/01 00:29:43;;;;;;;3.40;2.70;;;;;;;8.29;83.27;95791.19;1649677;87;21070;-62
2022/01/01 00:32:09;;;;;;;3.45;2.47;;;;;;;8.25;83.12;95807.84;1649678;87;20998;-62
2022/01/01 00:34:36;;;;;;;2.60;2.22;;;;;;;8.23;83.27;95793.39;1649388;87;21504;-62
2022/01/01 00:37:05;;;;;;;3.72;2.80;;;;;;;8.19;83.28;95775.91;1649571;87;21528;-61
2022/01/01 00:39:31;;;;;;;2.95;2.20;;;;;;;8.18;83.39;95777.22;1649182;87;21420;-62
2022/01/01 00:41:58;;;;;;;3.45;1.85;;;;;;;8.16;83.37;95779.84;1649359;87;21560;-61
2022/01/01 00:44:24;;;;;;;2.58;2.05;;;;;;;8.16;83.32;95778.53;1649449;87;21030;-61
2022/01/01 00:46:51;;;;;;;2.87;2.30;;;;;;;8.19;82.46;95789.05;1649491;87;21002;-62
2022/01/01 00:49:17;;;;;;;3.10;1.98;;;;;;;8.25;82.76;95797.33;1649059;87;21098;-62
2022/01/01 00:51:44;;;;;;;2.25;2.02;;;;;;;8.32;82.31;95804.75;1649664;87;21007;-61
2022/01/01 00:54:10;;;;;;;2.62;1.55;;;;;;;8.42;82.04;95812.59;1649351;87;21065;-62
2022/01/01 00:56:38;;;;;;;2.50;1.65;;;;;;;8.47;82.14;95810.35;1649183;87;21046;-61
2022/01/01 00:59:04;;;;;;;3.67;1.80;;;;;;;8.47;81.37;95791.53;1649313;87;21205;-62
2022/01/01 01:01:32;;;;;;;3.58;2.05;;;;;;;8.51;81.63;95789.73;1649385;87;21034;-62
2022/01/01 01:03:58;;;;;;;2.22;1.62;;;;;;;8.58;80.84;95782.23;1649355;87;21050;-62
2022/01/01 01:06:25;;;;;;;4.08;2.25;;;;;;;8.61;81.12;95785.70;1649473;87;21022;-61
2022/01/01 01:08:53;;;;;;;4.30;2.70;;;;;;;8.64;80.78;95798.85;1649509;87;21002;-62
2022/01/01 01:11:20;;;;;;;3.15;2.37;;;;;;;8.64;80.97;95779.13;1649044;87;21074;-61
2022/01/01 01:13:55;;;;;;;3.02;1.67;;;;;;;8.62;80.88;95764.24;1649105;87;21104;-62
2022/01/01 01:16:14;;;;;;;1.82;1.60;;;;;;;8.59;80.92;95766.88;1649410;87;21541;-61
2022/01/01 01:18:41;;;;;;;3.35;1.70;;;;;;;8.57;80.85;95747.18;1649583;87;21026;-62
2022/01/01 01:21:08;;;;;;;2.47;1.80;;;;;;;8.57;80.72;95726.14;1649158;87;21122;-62
2022/01/01 01:23:34;;;;;;;2.33;1.80;;;;;;;8.60;80.61;95734.00;1649530;87;20979;-62
2022/01/01 01:26:01;;;;;;;1.80;1.53;;;;;;;8.60;80.72;95736.62;1649343;87;21094;-62
2022/01/01 01:28:28;;;;;;;4.37;1.70;;;;;;;8.56;80.40;95711.23;1649350;87;21090;-62
2022/01/01 01:30:54;;;;;;;4.55;2.20;;;;;;;8.61;80.54;95711.19;1649485;87;21021;-61
2022/01/01 01:33:20;;;;;;;3.58;2.42;;;;;;;8.58;80.71;95709.91;1649544;87;21050;-61
2022/01/01 01:35:47;;;;;;;2.37;1.98;;;;;;;8.57;80.52;95717.38;1649324;87;21563;-62
2022/01/01 01:38:14;;;;;;;3.15;2.17;;;;;;;8.57;80.77;95728.77;1649365;87;21074;-61
2022/01/01 01:40:40;;;;;;;2.45;1.75;;;;;;;8.57;81.03;95741.92;1649475;87;21481;-61
2022/01/01 01:43:10;;;;;;;2.67;1.72;;;;;;;8.57;80.68;95748.49;1649258;87;21010;-62
2022/01/01 01:45:36;;;;;;;3.15;1.95;;;;;;;8.65;80.70;95723.44;1649342;87;21010;-62
2022/01/01 01:48:03;;;;;;;3.37;2.00;;;;;;;8.65;80.79;95723.44;1649340;86;21149;-61
2022/01/01 01:50:30;;;;;;;3.47;1.90;;;;;;;8.60;81.08;95720.84;1649401;87;21034;-62
2022/01/01 01:52:59;;;;;;;2.45;1.82;;;;;;;8.55;81.04;95722.64;1649564;87;21536;-62
2022/01/01 01:55:27;;;;;;;1.90;1.47;;;;;;;8.57;81.16;95716.06;1649760;87;21078;-62
2022/01/01 01:57:55;;;;;;;2.10;1.60;;;;;;;8.60;80.98;95722.61;1649482;87;21019;-62
2022/01/01 02:02:51;;;;;;;2.00;1.20;;;;;;;8.63;81.01;95711.61;1649597;87;21524;-61
2022/01/01 02:05:18;;;;;;;2.15;1.72;;;;;;;8.56;81.00;95682.75;1649793;87;21034;-61
2022/01/01 02:07:44;;;;;;;2.50;1.60;;;;;;;8.56;81.11;95699.39;1649440;87;21054;-62
2022/01/01 02:10:11;;;;;;;4.55;1.85;;;;;;;8.59;81.16;95691.50;1649764;87;21034;-62
2022/01/01 02:12:40;;;;;;;2.50;1.85;;;;;;;8.57;81.16;95716.94;1649707;87;21026;-62
2022/01/01 02:15:25;;;;;;;1.70;1.57;;;;;;;8.59;81.12;95709.91;1649743;87;21046;-61
2022/01/01 02:17:36;;;;;;;2.08;1.37;;;;;;;8.59;81.23;95695.44;1649476;86;21525;-62
2022/01/01 02:20:15;;;;;;;2.33;1.35;;;;;;;8.56;80.96;95686.24;1649465;87;21046;-61
2022/01/01 02:22:51;;;;;;;1.87;1.20;;;;;;;8.62;81.06;95700.66;1649723;87;21527;-61
2022/01/01 02:25:18;;;;;;;2.85;1.85;;;;;;;8.68;80.83;95690.97;1649374;87;21520;-61
2022/01/01 02:27:45;;;;;;;2.45;1.30;;;;;;;8.74;80.51;95685.64;1649487;87;21027;-62
2022/01/01 02:30:14;;;;;;;2.33;1.90;;;;;;;8.80;79.98;95683.83;1649452;87;21595;-61
2022/01/01 02:32:41;;;;;;;1.60;1.30;;;;;;;8.83;79.74;95679.84;1649622;87;21473;-62
2022/01/01 02:35:12;;;;;;;1.47;0.98;;;;;;;8.84;79.80;95688.19;1649540;87;21058;-61
2022/01/01 02:37:39;;;;;;;1.35;1.20;;;;;;;8.84;79.77;95676.34;1649729;87;21049;-61
2022/01/01 02:40:09;;;;;;;1.50;1.27;;;;;;;8.81;79.93;95680.30;1649565;87;21477;-62
2022/01/01 02:42:38;;;;;;;1.60;1.30;;;;;;;8.77;80.07;95675.97;1649471;87;21053;-62
2022/01/01 02:45:10;;;;;;;1.80;1.37;;;;;;;8.75;80.27;95679.51;1649575;87;21026;-62
2022/01/01 02:47:38;;;;;;;2.40;1.60;;;;;;;8.72;80.29;95676.47;1649879;87;20994;-62
2022/01/01 02:50:07;;;;;;;4.65;1.70;;;;;;;8.76;80.29;95679.92;1647712;86;21035;-62
2022/01/01 02:52:33;;;;;;;2.92;1.70;;;;;;;8.71;80.32;95683.05;1647705;87;21030;-62
2022/01/01 02:55:00;;;;;;;2.42;1.40;;;;;;;8.70;80.36;95678.69;1647809;87;21050;-62
2022/01/01 02:57:26;;;;;;;1.55;1.45;;;;;;;8.70;80.41;95670.79;1647714;87;20991;-62
2022/01/01 02:59:53;;;;;;;3.52;1.40;;;;;;;8.65;80.31;95669.06;1647830;87;21050;-62
2022/01/01 03:02:19;;;;;;;2.08;1.37;;;;;;;8.64;80.22;95673.91;1647860;87;21083;-62
2022/01/01 03:04:46;;;;;;;2.60;1.82;;;;;;;8.62;80.33;95668.23;1648093;87;21058;-62
2022/01/01 03:07:13;;;;;;;1.70;1.37;;;;;;;8.56;80.39;95666.52;1647883;87;21548;-62
2022/01/01 03:09:40;;;;;;;1.30;1.20;;;;;;;8.50;80.48;95663.09;1647773;87;21508;-62
2022/01/01 03:12:11;;;;;;;2.42;1.50;;;;;;;8.51;80.68;95659.11;1647802;87;21026;-62
2022/01/01 03:14:38;;;;;;;3.22;1.90;;;;;;;8.47;80.64;95655.20;1647488;87;21073;-61
2022/01/01 03:17:06;;;;;;;3.05;2.02;;;;;;;8.48;80.71;95662.23;1647745;87;21073;-61
2022/01/01 03:19:33;;;;;;;1.85;1.50;;;;;;;8.45;80.72;95656.55;1647902;87;21117;-61
2022/01/01 03:22:02;;;;;;;2.27;1.55;;;;;;;8.44;80.65;95653.06;1647820;87;21464;-61
2022/01/01 03:24:28;;;;;;;2.02;1.85;;;;;;;8.44;80.67;95660.95;1647727;87;21026;-61
2022/01/01 03:26:55;;;;;;;1.77;1.50;;;;;;;8.44;80.67;95659.64;1647761;87;21045;-61
2022/01/01 03:29:22;;;;;;;1.57;1.27;;;;;;;8.48;80.63;95659.59;1647696;87;21034;-61
2022/01/01 03:31:49;;;;;;;2.15;1.60;;;;;;;8.45;80.59;95653.92;1647782;87;21038;-61
2022/01/01 03:34:15;;;;;;;2.08;1.87;;;;;;;8.44;80.62;95667.94;1647854;87;21536;-61
2022/01/01 03:36:42;;;;;;;1.82;1.40;;;;;;;8.43;80.76;95671.02;1647874;87;21118;-61
2022/01/01 03:39:09;;;;;;;2.42;1.50;;;;;;;8.41;80.53;95677.17;1647801;87;21086;-61
2022/01/01 03:41:35;;;;;;;2.60;1.52;;;;;;;8.42;80.38;95681.13;1647969;87;21015;-61
2022/01/01 03:44:02;;;;;;;4.90;1.92;;;;;;;8.49;80.25;95678.42;1647517;87;21545;-61
2022/01/01 03:46:28;;;;;;;3.42;2.02;;;;;;;8.47;80.43;95683.72;1647857;87;21081;-61
2022/01/01 03:48:55;;;;;;;2.67;1.80;;;;;;;8.43;80.26;95686.80;1648408;86;21058;-61
2022/01/01 03:51:21;;;;;;;4.45;1.72;;;;;;;8.45;80.22;95682.41;1649208;87;21026;-61
2022/01/01 03:53:48;;;;;;;4.67;1.98;;;;;;;8.45;80.45;95681.09;1649550;87;20998;-61
2022/01/01 03:56:14;;;;;;;5.45;2.62;;;;;;;8.43;80.59;95686.80;1649623;87;21031;-61
2022/01/01 03:58:42;;;;;;;5.58;2.98;;;;;;;8.42;80.65;95692.09;1649262;87;21022;-61
2022/01/01 04:01:09;;;;;;;5.65;3.17;;;;;;;8.38;80.75;95689.88;1649513;87;21038;-61
2022/01/01 04:03:36;;;;;;;3.30;1.87;;;;;;;8.31;80.88;95701.33;1649651;87;21050;-61
2022/01/01 04:06:02;;;;;;;3.25;2.15;;;;;;;8.23;81.09;95695.27;1649310;87;21069;-61
2022/01/01 04:08:30;;;;;;;14.07;5.47;;;;;;;8.24;81.37;95700.97;1649558;87;21014;-61
2022/01/01 04:10:58;;;;;;;2.67;2.00;;;;;;;8.25;81.42;95701.38;1649593;87;21505;-61
2022/01/01 04:13:24;;;;;;;9.20;4.17;;;;;;;8.23;81.42;95705.33;1649443;87;21002;-61
2022/01/01 04:15:51;;;;;;;4.80;2.05;;;;;;;8.24;81.64;95705.78;1649385;87;21539;-61
2022/01/01 04:18:26;;;;;;;4.50;2.40;;;;;;;8.22;81.52;95705.36;1649690;87;21062;-61
2022/01/01 04:20:47;;;;;;;7.87;4.25;;;;;;;8.18;81.64;95713.69;1649180;87;21058;-61
2022/01/01 04:23:14;;;;;;;4.92;2.22;;;;;;;8.23;81.56;95707.95;1649722;87;21018;-61
2022/01/01 04:25:40;;;;;;;3.05;1.92;;;;;;;8.26;81.49;95711.45;1649395;87;21063;-61
2022/01/01 04:28:07;;;;;;;1.77;1.42;;;;;;;8.29;81.27;95706.16;1649436;87;21050;-61
2022/01/01 04:30:35;;;;;;;2.67;1.62;;;;;;;8.33;81.00;95721.04;1649484;87;21042;-61
2022/01/01 04:33:02;;;;;;;2.02;1.62;;;;;;;8.37;80.80;95712.26;1649259;87;21054;-61
2022/01/01 04:35:28;;;;;;;2.22;1.77;;;;;;;8.36;80.85;95707.41;1649170;87;21047;-61
2022/01/01 04:37:55;;;;;;;3.15;1.85;;;;;;;8.38;80.76;95699.08;1649504;87;21018;-61
2022/01/01 04:40:22;;;;;;;2.98;1.85;;;;;;;8.41;80.86;95710.05;1649398;87;21624;-61
2022/01/01 04:42:49;;;;;;;3.20;2.10;;;;;;;8.43;80.79;95717.03;1649359;87;21054;-61
2022/01/01 04:45:15;;;;;;;2.10;1.70;;;;;;;8.45;80.76;95717.90;1649178;87;21508;-61
2022/01/01 04:47:42;;;;;;;2.37;2.10;;;;;;;8.42;80.70;95721.88;1649613;87;21026;-61
2022/01/01 04:50:09;;;;;;;2.80;1.92;;;;;;;8.43;80.84;95726.23;1649282;86;21524;-61
2022/01/01 04:52:36;;;;;;;1.95;1.40;;;;;;;8.42;80.82;95723.64;1649464;87;21026;-61
2022/01/01 04:55:03;;;;;;;2.17;1.62;;;;;;;8.41;80.61;95721.88;1649444;87;21077;-61
2022/01/01 04:57:30;;;;;;;3.52;2.35;;;;;;;8.42;80.51;95721.01;1649493;87;21544;-61
2022/01/01 04:59:58;;;;;;;2.40;1.77;;;;;;;8.43;80.53;95726.23;1649384;87;21011;-61
2022/01/01 05:02:26;;;;;;;2.17;1.75;;;;;;;8.40;80.49;95734.61;1649600;87;20995;-61
2022/01/01 05:04:53;;;;;;;2.30;1.87;;;;;;;8.41;80.06;95725.82;1649751;87;21069;-61
2022/01/01 05:07:21;;;;;;;2.52;2.15;;;;;;;8.42;80.25;95732.84;1649519;87;21062;-61
2022/01/01 05:09:48;;;;;;;2.40;1.82;;;;;;;8.41;80.48;95740.28;1649555;87;21058;-61
2022/01/01 05:12:15;;;;;;;2.50;1.80;;;;;;;8.36;80.42;95734.16;1649474;87;21010;-61
2022/01/01 05:14:41;;;;;;;3.12;1.80;;;;;;;8.36;80.50;95728.89;1649283;87;21027;-61
2022/01/01 05:17:08;;;;;;;2.37;1.70;;;;;;;8.36;80.43;95728.89;1649087;87;21054;-61
2022/01/01 05:19:35;;;;;;;3.87;1.80;;;;;;;8.38;80.59;95735.02;1649705;87;21030;-61
2022/01/01 05:22:01;;;;;;;4.30;2.20;;;;;;;8.35;80.47;95734.60;1649469;87;21050;-61
2022/01/01 05:24:28;;;;;;;2.55;1.80;;;;;;;8.38;80.51;95741.59;1649465;87;21022;-61
2022/01/01 05:26:54;;;;;;;3.70;2.17;;;;;;;8.35;80.53;95742.49;1649393;87;21025;-61
2022/01/01 05:29:21;;;;;;;2.70;2.33;;;;;;;8.37;80.65;95750.38;1649264;87;21074;-61
2022/01/01 05:31:47;;;;;;;3.80;2.08;;;;;;;8.33;80.47;95745.56;1649458;87;21521;-61
2022/01/01 05:34:15;;;;;;;2.50;1.72;;;;;;;8.35;79.71;95747.75;1649112;87;21094;-61
2022/01/01 05:36:41;;;;;;;1.77;1.52;;;;;;;8.38;79.44;95749.48;1649353;87;21512;-61
2022/01/01 05:39:08;;;;;;;1.67;1.55;;;;;;;8.39;79.63;95753.46;1649120;87;21092;-61
2022/01/01 05:41:35;;;;;;;2.37;1.82;;;;;;;8.45;78.32;95767.00;1649563;87;21023;-61
2022/01/01 05:44:02;;;;;;;1.92;1.30;;;;;;;8.43;79.07;95761.73;1649358;87;21082;-61
2022/01/01 05:46:30;;;;;;;3.05;1.60;;;;;;;8.40;79.21;95762.22;1649300;87;21050;-61
2022/01/01 05:48:56;;;;;;;1.90;1.40;;;;;;;8.34;79.49;95767.05;1649536;87;21079;-61
2022/01/01 05:51:23;;;;;;;3.60;2.00;;;;;;;8.26;79.07;95768.83;1649130;87;21054;-61
2022/01/01 05:53:50;;;;;;;2.52;1.50;;;;;;;8.24;79.31;95768.87;1649397;87;21031;-61
2022/01/01 05:56:16;;;;;;;2.37;1.72;;;;;;;8.19;79.22;95764.08;1649601;87;21066;-61
2022/01/01 05:58:43;;;;;;;4.05;1.92;;;;;;;8.16;79.77;95776.34;1649338;87;21604;-61
2022/01/01 06:01:09;;;;;;;3.92;2.22;;;;;;;8.13;79.62;95782.50;1649408;87;21035;-61
2022/01/01 06:03:35;;;;;;;3.83;2.45;;;;;;;8.13;79.57;95777.69;1649440;87;21050;-61
2022/01/01 06:06:02;;;;;;;4.87;2.50;;;;;;;8.09;80.06;95781.20;1649341;87;21078;-61
2022/01/01 06:08:28;;;;;;;3.52;2.15;;;;;;;8.06;80.04;95787.80;1649625;87;21050;-61
2022/01/01 06:10:55;;;;;;;2.35;1.90;;;;;;;8.04;79.88;95787.83;1649469;87;21019;-61
2022/01/01 06:13:22;;;;;;;3.62;2.17;;;;;;;8.00;79.75;95786.95;1648981;87;21091;-61
2022/01/01 06:15:48;;;;;;;2.70;1.82;;;;;;;8.03;79.26;95783.44;1649419;87;21074;-61
2022/01/01 06:18:15;;;;;;;2.37;1.80;;;;;;;8.03;79.67;95787.38;1649061;87;21065;-61
2022/01/01 06:20:43;;;;;;;3.12;2.52;;;;;;;8.06;78.54;95795.69;1649442;87;21054;-61
2022/01/01 06:23:10;;;;;;;3.33;2.00;;;;;;;8.15;77.10;95791.70;1649095;87;21097;-61
2022/01/01 06:25:37;;;;;;;3.00;2.12;;;;;;;8.13;77.52;95803.97;1649408;87;21019;-61
2022/01/01 06:28:04;;;;;;;3.08;1.90;;;;;;;8.12;77.48;95791.28;1649115;87;21060;-61
2022/01/01 06:30:35;;;;;;;3.80;2.20;;;;;;;8.10;77.24;95791.72;1649032;87;21126;-61
2022/01/01 06:33:16;;;;;;;3.02;2.12;;;;;;;8.10;77.22;95785.16;1649353;87;21026;-61
2022/01/01 06:35:45;;;;;;;3.33;2.70;;;;;;;8.09;77.63;95793.93;1649321;87;21081;-61
2022/01/01 06:38:13;;;;;;;4.97;3.12;;;;;;;8.06;77.64;95796.55;1649341;87;21042;-61
2022/01/01 06:40:42;;;;;;;5.75;4.03;;;;;;;8.04;77.94;95797.03;1649376;87;21050;-61
2022/01/01 06:43:12;;;;;;;8.55;4.53;;;;;;;8.01;78.05;95803.59;1649341;87;21054;-61
2022/01/01 06:45:40;;;;;;;6.17;3.87;;;;;;;7.99;78.18;95816.75;1649274;87;21034;-61
2022/01/01 06:48:07;;;;;;;7.90;5.25;;;;;;;7.96;78.21;95823.76;1649234;87;21552;-61
2022/01/01 06:50:37;;;;;;;8.23;5.47;;;;;;;7.95;78.25;95844.36;1649000;87;21054;-61
2022/01/01 06:53:03;;;;;;;6.30;3.85;;;;;;;7.92;78.34;95849.19;1649317;87;21069;-61
2022/01/01 06:55:31;;;;;;;5.80;4.00;;;;;;;7.93;78.37;95854.00;1649060;87;21065;-61
2022/01/01 06:57:57;;;;;;;5.28;3.85;;;;;;;7.90;78.46;95854.88;1649606;87;21035;-61
2022/01/01 07:00:24;;;;;;;10.43;5.67;;;;;;;7.88;78.83;95864.97;1649172;87;21580;-61
2022/01/01 07:02:50;;;;;;;8.68;4.33;;;;;;;7.86;78.79;95868.94;1649084;87;21098;-61
2022/01/01 07:05:16;;;;;;;8.25;4.30;;;;;;;7.88;78.87;95875.03;1649321;87;21022;-61
2022/01/01 07:07:43;;;;;;;5.72;4.22;;;;;;;7.88;78.99;95877.66;1649321;87;21069;-61
2022/01/01 07:10:12;;;;;;;10.58;7.42;;;;;;;7.86;79.26;95886.42;1649413;87;21022;-61
2022/01/01 07:12:40;;;;;;;7.12;5.33;;;;;;;7.86;79.32;95887.32;1649410;87;21551;-61
2022/01/01 07:15:09;;;;;;;11.25;6.95;;;;;;;7.86;79.25;95886.42;1649443;87;21090;-61
2022/01/01 07:17:36;;;;;;;6.35;4.65;;;;;;;7.91;79.41;95888.59;1649323;87;21580;-61
2022/01/01 07:20:05;;;;;;;11.65;6.45;;;;;;;7.93;79.50;95888.16;1649517;87;21023;-61
2022/01/01 07:22:32;;;;;;;11.22;8.35;;;;;;;7.95;79.49;95887.71;1649320;87;21050;-61
2022/01/01 07:24:58;;;;;;;10.48;6.78;;;;;;;7.99;79.50;95896.03;1649318;87;21535;-62
2022/01/01 07:27:25;;;;;;;6.45;4.83;;;;;;;8.02;79.52;95895.56;1649071;87;21547;-61
2022/01/01 07:29:52;;;;;;;7.08;4.67;;;;;;;8.08;79.48;95899.91;1649103;87;21564;-62
2022/01/01 07:32:18;;;;;;;7.87;5.20;;;;;;;8.08;79.03;95903.86;1649051;87;21026;-61
2022/01/01 07:34:45;;;;;;;6.60;4.75;;;;;;;8.11;78.97;95904.28;1649482;87;21022;-61
2022/01/01 07:37:11;;;;;;;6.22;4.90;;;;;;;8.11;78.98;95916.98;1648997;87;21098;-61
2022/01/01 07:39:38;;;;;;;8.70;5.55;;;;;;;8.16;79.09;95914.34;1649312;87;21003;-61
2022/01/01 07:42:06;;;;;;;7.00;4.95;;;;;;;8.21;79.25;95907.30;1649487;87;21030;-61
2022/01/01 07:44:32;;;;;;;7.75;5.30;;;;;;;8.24;79.83;95900.30;1649260;87;21071;-61
2022/01/01 07:47:00;;;;;;;6.45;4.95;;;;;;;8.31;79.82;95903.75;1649307;87;21074;-61
2022/01/01 07:49:27;;;;;;;7.15;4.95;;;;;;;8.29;79.64;95905.54;1649369;87;21045;-63
2022/01/01 07:51:53;;;;;;;9.28;5.97;;;;;;;8.25;79.89;95907.73;1649386;87;21042;-62
2022/01/01 07:54:20;;;;;;;11.88;7.35;;;;;;;8.22;79.89;95902.05;1649290;87;21027;-61
2022/01/01 07:56:47;;;;;;;8.83;5.90;;;;;;;8.25;80.02;95906.42;1649133;87;21176;-61
2022/01/01 07:59:13;;;;;;;8.25;5.30;;;;;;;8.26;80.03;95896.77;1649527;87;21069;-61
2022/01/01 08:01:40;;;;;;;8.98;6.20;;;;;;;8.25;80.14;95903.80;1649357;87;21022;-61
2022/01/01 08:04:06;;;;;;;7.70;6.08;;;;;;;8.21;80.36;95908.20;1649414;87;21584;-61
2022/01/01 08:06:33;;;;;;;9.38;6.08;;;;;;;8.20;80.91;95915.64;1649501;87;21070;-61
2022/01/01 08:09:00;;;;;;;10.80;7.42;;;;;;;8.19;80.70;95915.22;1649406;87;20995;-61
2022/01/01 08:11:26;;;;;;;18.45;11.43;;;;;;;8.20;80.67;95914.33;1649449;87;21057;-61
2022/01/01 08:13:53;;;;;;;14.50;9.20;;;;;;;8.19;80.70;95922.23;1649619;87;21082;-61
2022/01/01 08:16:21;;;;;;;12.93;9.15;;;;;;;8.17;80.69;95928.80;1649256;87;21101;-61
2022/01/01 08:18:48;;;;;;;14.63;9.48;;;;;;;8.17;80.69;95934.50;1649306;87;21528;-61
2022/01/01 08:21:14;;;;;;;14.58;9.18;;;;;;;8.18;80.90;95937.11;1649411;87;21062;-61
2022/01/01 08:23:41;;;;;;;16.07;10.13;;;;;;;8.21;80.82;95953.31;1625023;87;21086;-61
2022/01/01 08:26:08;;;;;;;11.73;8.13;;;;;;;8.23;80.86;95952.87;1649638;87;21018;-61
2022/01/01 08:28:35;;;;;;;11.18;7.45;;;;;;;8.24;81.03;95950.25;1649474;87;21054;-61
2022/01/01 08:31:01;;;;;;;10.75;7.40;;;;;;;8.26;81.09;95951.98;1649425;87;20982;-61
2022/01/01 08:33:28;;;;;;;10.50;8.30;;;;;;;8.26;81.36;95959.42;1649164;87;21034;-61
2022/01/01 08:35:55;;;;;;;10.30;6.75;;;;;;;8.31;81.44;95966.85;1649674;87;21110;-61
2022/01/01 08:38:21;;;;;;;8.53;5.97;;;;;;;8.26;81.13;95971.25;1649410;87;20998;-61
2022/01/01 08:40:48;;;;;;;9.68;7.08;;;;;;;8.21;81.46;95975.66;1649508;87;21014;-61
2022/01/01 08:43:14;;;;;;;10.95;6.70;;;;;;;8.20;81.54;95980.48;1649475;87;21082;-61
2022/01/01 08:45:41;;;;;;;8.95;6.90;;;;;;;8.18;81.86;95984.42;1649300;87;21018;-61
2022/01/01 08:48:08;;;;;;;10.23;7.30;;;;;;;8.18;82.19;95980.92;1649199;87;21089;-61
2022/01/01 08:50:35;;;;;;;9.98;7.33;;;;;;;8.18;82.25;95984.87;1649325;87;21046;-61
2022/01/01 08:53:02;;;;;;;13.20;8.68;;;;;;;8.17;82.58;95985.31;1649521;87;21046;-61
2022/01/01 08:55:29;;;;;;;12.98;8.08;;;;;;;8.18;82.56;95987.05;1649580;87;21038;-61
2022/01/01 08:57:55;;;;;;;11.12;7.15;;;;;;;8.19;82.65;95980.94;1649361;87;21050;-61
2022/01/01 09:00:22;;;;;;;15.70;10.48;;;;;;;8.21;82.66;95980.49;1649300;87;21042;-62
2022/01/01 09:02:49;;;;;;;16.60;11.68;;;;;;;8.25;82.69;95983.97;1649475;87;21050;-61
2022/01/01 09:05:15;;;;;;;13.90;10.18;;;;;;;8.32;82.93;95985.70;1649378;87;21584;-61
2022/01/01 09:07:42;;;;;;;14.15;9.93;;;;;;;8.41;82.96;95990.94;1649362;87;21051;-61
2022/01/01 09:10:09;;;;;;;15.80;11.63;;;;;;;8.45;82.80;95975.59;1649337;87;21109;-61
2022/01/01 09:12:37;;;;;;;19.77;13.40;;;;;;;8.56;82.99;95977.30;1649422;87;21488;-61
2022/01/01 09:15:04;;;;;;;13.05;8.63;;;;;;;8.72;83.44;95985.58;1649353;87;21039;-61
2022/01/01 09:17:31;;;;;;;14.85;11.05;;;;;;;8.81;83.35;95988.58;1649304;87;21042;-61
2022/01/01 09:19:57;;;;;;;13.65;9.83;;;;;;;8.90;83.21;95991.17;1649516;87;21010;-61
2022/01/01 09:22:25;;;;;;;13.80;9.30;;;;;;;8.98;82.85;95997.26;1649278;87;21595;-61
2022/01/01 09:24:51;;;;;;;11.22;8.93;;;;;;;9.00;82.65;96004.71;1649581;87;21548;-61
2022/01/01 09:27:18;;;;;;;13.62;9.40;;;;;;;9.02;82.59;96007.31;1649475;87;21034;-61
2022/01/01 09:29:44;;;;;;;12.25;9.18;;;;;;;9.09;82.75;96017.80;1649370;87;21015;-61
2022/01/01 09:32:11;;;;;;;12.78;9.10;;;;;;;9.16;82.57;96013.83;1649385;87;21038;-61
2022/01/01 09:34:38;;;;;;;13.38;8.53;;;;;;;9.21;82.52;96012.03;1649380;87;21047;-61
2022/01/01 09:37:05;;;;;;;13.45;8.45;;;;;;;9.25;82.51;96013.78;1649438;87;21054;-61
2022/01/01 09:39:31;;;;;;;15.30;11.03;;;;;;;9.31;82.25;96012.41;1649490;87;21402;-61
2022/01/01 09:41:58;;;;;;;15.25;11.45;;;;;;;9.25;82.12;96018.59;1649390;87;21015;-61
2022/01/01 09:44:25;;;;;;;14.40;10.15;;;;;;;9.24;82.20;96015.51;1625171;87;21054;-61
2022/01/01 09:46:52;;;;;;;11.18;8.75;;;;;;;9.24;82.24;96006.74;1649274;87;21493;-61
2022/01/01 09:49:20;;;;;;;11.80;7.65;;;;;;;9.23;82.20;96008.95;1649272;87;21038;-61
2022/01/01 09:51:47;;;;;;;11.68;8.88;;;;;;;9.19;81.86;96012.03;1649299;87;21050;-61
2022/01/01 09:54:14;;;;;;;10.72;8.33;;;;;;;9.15;81.84;96006.80;1649442;87;21007;-61
2022/01/01 09:56:40;;;;;;;11.75;8.23;;;;;;;9.15;81.83;96009.01;1649341;87;21564;-61
2022/01/01 09:59:07;;;;;;;11.43;8.95;;;;;;;9.11;82.18;96000.69;1649389;87;21477;-61
2022/01/01 10:01:34;;;;;;;13.55;8.63;;;;;;;9.14;82.49;96004.61;1649271;87;21046;-61
2022/01/01 10:04:01;;;;;;;10.50;8.23;;;;;;;9.20;82.54;95997.14;1649195;87;21576;-61
2022/01/01 10:06:29;;;;;;;13.05;9.43;;;;;;;9.25;82.53;95996.21;1625345;87;21082;-61
2022/01/01 10:08:59;;;;;;;17.57;10.48;;;;;;;9.32;82.54;95997.02;1646964;87;21046;-61
2022/01/01 10:11:27;;;;;;;14.03;10.40;;;;;;;9.42;82.61;95994.75;1649323;87;21046;-61
2022/01/01 10:13:54;;;;;;;16.87;10.75;;;;;;;9.65;82.90;95993.27;1649376;87;21026;-61
2022/01/01 10:16:22;;;;;;;9.18;6.42;;;;;;;9.97;82.40;95993.41;1648981;87;21141;-61
2022/01/01 10:18:52;;;;;;;7.80;6.28;;;;;;;10.12;81.04;96002.92;1649263;87;21030;-61
2022/01/01 10:21:27;;;;;;;11.55;7.58;;;;;;;10.19;80.45;95993.61;1649467;87;21043;-61
2022/01/01 10:23:57;;;;;;;7.10;4.97;;;;;;;10.25;80.36;95995.75;1649497;87;21106;-61
2022/01/01 10:29:24;;;;;;;6.45;4.60;;;;;;;10.42;80.18;95984.61;1649549;87;21050;-61
2022/01/01 10:32:03;;;;;;;22.40;20.23;;;;;;;10.56;79.28;95977.86;1649271;87;21018;-61
2022/01/01 10:34:34;;;;;;;5.95;4.00;;;;;;;10.58;77.68;95973.41;1649334;87;21121;-61
2022/01/01 10:37:05;;;;;;;6.87;4.60;;;;;;;10.60;78.38;95975.14;1648833;87;21064;-62
2022/01/01 10:39:32;;;;;;;4.42;3.00;;;;;;;10.71;78.38;95982.05;1649240;87;21075;-62
2022/01/01 10:42:03;;;;;;;41.95;35.60;;;;;;;10.76;78.54;95980.22;1649188;87;21058;-62
2022/01/01 10:44:39;;;;;;;10.50;7.10;;;;;;;10.88;78.01;95984.47;1649497;87;21026;-62
2022/01/01 10:47:18;;;;;;;20.68;13.03;;;;;;;11.24;77.15;95981.31;1649220;87;21107;-62
2022/01/01 10:52:28;;;;;;;2.60;2.20;;;;;;;12.43;76.28;95976.66;1649184;87;21104;-62
2022/01/01 10:54:58;;;;;;;5.83;4.35;;;;;;;12.92;69.58;95975.63;1649460;87;21054;-62
2022/01/01 10:57:34;;;;;;;5.72;4.58;;;;;;;12.83;67.09;95971.88;1649146;87;21094;-62
2022/01/01 11:00:15;;;;;;;2.98;2.67;;;;;;;12.83;67.09;95971.88;1649279;87;21525;-62
2022/01/01 11:02:59;;;;;;;5.05;2.35;;;;;;;12.74;69.63;95971.14;1649256;87;21049;-62
2022/01/01 11:05:32;;;;;;;3.90;3.30;;;;;;;12.62;68.90;95979.80;1649365;87;21062;-62
2022/01/01 11:08:00;;;;;;;7.58;6.20;;;;;;;12.41;68.39;95974.03;1649415;87;21512;-62
2022/01/01 11:10:27;;;;;;;4.35;3.60;;;;;;;12.16;68.56;95959.53;1649427;87;21031;-62
2022/01/01 11:12:56;;;;;;;6.85;6.10;;;;;;;12.10;69.36;95968.47;1649501;87;21058;-62
2022/01/01 11:15:23;;;;;;;5.78;4.37;;;;;;;12.39;69.55;95952.02;1649512;87;21090;-62
2022/01/01 11:17:50;;;;;;;4.78;3.20;;;;;;;12.66;68.00;95949.27;1647003;87;21030;-62
2022/01/01 11:20:18;;;;;;;7.55;5.00;;;;;;;12.50;66.86;95951.36;1646897;87;21667;-62
2022/01/01 11:22:46;;;;;;;5.90;4.22;;;;;;;12.27;67.19;95959.77;1649332;87;21034;-62
2022/01/01 11:25:13;;;;;;;5.28;4.05;;;;;;;12.48;68.13;95961.11;1649351;87;21588;-62
2022/01/01 11:27:40;;;;;;;7.62;5.53;;;;;;;12.54;66.61;95960.97;1649326;87;21042;-62
2022/01/01 11:30:11;;;;;;;5.15;4.03;;;;;;;12.90;67.12;95959.80;1625393;87;21023;-62
2022/01/01 11:33:07;;;;;;;5.33;4.15;;;;;;;12.93;67.15;95965.02;1649475;87;21484;-62
2022/01/01 11:35:41;;;;;;;8.03;5.58;;;;;;;12.60;65.25;95963.06;1649440;87;21050;-62
2022/01/01 11:38:11;;;;;;;5.28;3.87;;;;;;;12.35;66.24;95966.23;1649203;87;21070;-62
2022/01/01 11:40:55;;;;;;;4.72;3.70;;;;;;;11.94;67.54;95970.95;1649489;87;21085;-62
2022/01/01 11:43:48;;;;;;;3.75;3.27;;;;;;;11.43;68.72;95967.36;1649502;87;21054;-60
2022/01/01 11:46:26;;;;;;;5.03;3.15;;;;;;;11.43;68.72;95967.36;1649848;87;21026;-60
2022/01/01 11:49:01;;;;;;;3.37;2.70;;;;;;;11.29;69.84;95973.33;1649392;87;21034;-61